ホーチミン の空港の天気 - METARとTAF

タンソンニャット国際空港 (ホーチミン) ( VVTS / SGN ) - ベトナム ホーチミン市
飛行場実況気象(Metar)
観測時間01/22 00:30 ICT (01/21 17:30 UTC)
風向・風速西北西 1m/s
視程7000m
天気現象
少しの雲 雲底高度 520m
全天の8割程度の雲 雲底高度 1520m
気温25℃
湿度100%
気圧1008hPa
METARVVTS 211730Z 30001KT 7000 FEW017 BKN050 25/25 Q1008 NOSIG
過去の天気等 Google飛行場航空写真 Wunderground天気予報

過去48時間のMETAR

飛行場予報(TAF)
発表時間: 1/22 00:00 ICT (1/21 17:00 UTC)
予報対象時間: 22日1時 ICT ~ 23日7時 ICT
風向・風速不定 1m/s
視程10km以上
全天の4割程度の雲 雲底高度 460m
全天の4割程度の雲 雲底高度 1,220m
22日4時 ICT ~ 22日5時 ICT に徐々に
視程5,000m
天気現象もや
22日7時 ICT ~ 22日8時 ICT に徐々に
風向・風速東 5m/s
視程10km以上
天気現象運行に影響にある天気現象が終了
22日14時 ICT ~ 22日19時 ICT に一時的に
視程5,000m
天気現象雷雨
全天の8割程度の雲 雲底高度 460m
少しの積乱雲 雲底高度 520m
TAF VVTS 211700Z 2118/2224 VRB02KT 9999 SCT015 SCT040
BECMG 2121/2122 5000 BR
BECMG 2200/2201 08010KT 9999 NSW
TEMPO 2207/2212 5000 TSRA BKN015 FEW017CB